EPPO/POZ METAR and TAF weather

Enter ICAO airport designator
Station Type Date Time Source
EPPO METAR 2021/09/25 13:00 UTC NOAA

EPPO 251300Z 27012KT 9999 BKN023 18/14 Q1015


Station Type Date Time Source
EPPO Decoded METAR 2021/09/25 13:00 UTC NOAA

Poznan, Poland (EPPO) 52-25N 016-50E 92M
Sep 25, 2021 - 09:00 AM EDT / 2021.09.25 1300 UTC
Wind: from the W (270 degrees) at 14 MPH (12 KT):0
Visibility: greater than 7 mile(s):0
Sky conditions: mostly cloudy
Temperature: 64 F (18 C)
Dew Point: 57 F (14 C)
Relative Humidity: 77%
Pressure (altimeter): 29.97 in. Hg (1015 hPa)
ob: EPPO 251300Z 27012KT 9999 BKN023 18/14 Q1015
cycle: 13

Station Type Date Time Source
EPPO TAF 2021/09/25 12:36 UTC NOAA

TAF EPPO 251130Z 2512/2612 25011KT 9999 BKN033 PROB40
TEMPO 2512/2518 4000 SHRA BKN008 BKN011CB
BECMG 2521/2524 VRB02KT 2000 BR BKN006
TEMPO 2600/2606 0500 FG BKN003

Example: see airport list